sensor_id;sensor_type;location;lat;lon;timestamp;P1;durP1;ratioP1;P2;durP2;ratioP2
65373;SDS011;52070;53.760;9.678;2022-09-17T00:00:37;29.20;;;3.60;;
65373;SDS011;52070;53.760;9.678;2022-09-17T00:03:05;20.92;;;3.10;;
65373;SDS011;52070;53.760;9.678;2022-09-17T00:05:34;37.85;;;3.83;;
65373;SDS011;52070;53.760;9.678;2022-09-17T00:08:02;28.52;;;3.25;;
65373;SDS011;52070;53.760;9.678;2022-09-17T00:10:30;23.98;;;2.95;;
65373;SDS011;52070;53.760;9.678;2022-09-17T00:12:58;32.60;;;3.25;;
65373;SDS011;52070;53.760;9.678;2022-09-17T00:15:25;27.55;;;3.47;;
65373;SDS011;52070;53.760;9.678;2022-09-17T00:17:54;31.52;;;3.55;;
65373;SDS011;52070;53.760;9.678;2022-09-17T00:20:23;34.97;;;3.90;;
65373;SDS011;52070;53.760;9.678;2022-09-17T00:22:51;21.38;;;3.15;;
65373;SDS011;52070;53.760;9.678;2022-09-17T00:25:18;25.10;;;2.97;;
65373;SDS011;52070;53.760;9.678;2022-09-17T00:27:45;24.20;;;3.65;;
65373;SDS011;52070;53.760;9.678;2022-09-17T00:30:12;28.52;;;3.38;;
65373;SDS011;52070;53.760;9.678;2022-09-17T00:32:39;26.92;;;3.72;;
65373;SDS011;52070;53.760;9.678;2022-09-17T00:35:08;39.65;;;4.05;;
65373;SDS011;52070;53.760;9.678;2022-09-17T00:37:35;23.35;;;2.97;;
65373;SDS011;52070;53.760;9.678;2022-09-17T00:40:02;32.10;;;3.75;;
65373;SDS011;52070;53.760;9.678;2022-09-17T00:42:29;26.08;;;3.00;;
65373;SDS011;52070;53.760;9.678;2022-09-17T00:44:56;28.52;;;2.88;;
65373;SDS011;52070;53.760;9.678;2022-09-17T00:47:26;25.33;;;3.42;;
65373;SDS011;52070;53.760;9.678;2022-09-17T00:49:56;20.67;;;2.88;;
65373;SDS011;52070;53.760;9.678;2022-09-17T00:52:30;31.83;;;3.25;;
65373;SDS011;52070;53.760;9.678;2022-09-17T00:55:02;23.42;;;2.80;;
65373;SDS011;52070;53.760;9.678;2022-09-17T00:57:37;26.05;;;2.78;;
65373;SDS011;52070;53.760;9.678;2022-09-17T01:00:06;21.70;;;2.90;;
65373;SDS011;52070;53.760;9.678;2022-09-17T01:02:34;26.38;;;3.35;;
65373;SDS011;52070;53.760;9.678;2022-09-17T01:05:01;25.85;;;3.10;;
65373;SDS011;52070;53.760;9.678;2022-09-17T01:07:37;19.65;;;2.78;;
65373;SDS011;52070;53.760;9.678;2022-09-17T01:10:27;22.42;;;2.97;;
65373;SDS011;52070;53.760;9.678;2022-09-17T01:13:06;15.68;;;2.17;;
65373;SDS011;52070;53.760;9.678;2022-09-17T01:15:41;14.50;;;2.25;;
65373;SDS011;52070;53.760;9.678;2022-09-17T01:18:28;15.30;;;1.85;;
65373;SDS011;52070;53.760;9.678;2022-09-17T01:24:20;23.48;;;2.78;;
65373;SDS011;52070;53.760;9.678;2022-09-17T01:27:21;21.95;;;2.35;;
65373;SDS011;52070;53.760;9.678;2022-09-17T01:30:05;28.88;;;3.63;;
65373;SDS011;52070;53.760;9.678;2022-09-17T01:32:45;15.23;;;2.17;;
65373;SDS011;52070;53.760;9.678;2022-09-17T01:35:18;25.25;;;2.72;;
65373;SDS011;52070;53.760;9.678;2022-09-17T01:37:53;24.02;;;2.50;;
65373;SDS011;52070;53.760;9.678;2022-09-17T01:40:28;21.77;;;3.13;;
65373;SDS011;52070;53.760;9.678;2022-09-17T01:43:02;22.08;;;2.40;;
65373;SDS011;52070;53.760;9.678;2022-09-17T01:45:33;17.92;;;2.33;;
65373;SDS011;52070;53.760;9.678;2022-09-17T01:48:07;16.52;;;2.50;;
65373;SDS011;52070;53.760;9.678;2022-09-17T01:50:39;19.52;;;2.75;;
65373;SDS011;52070;53.760;9.678;2022-09-17T01:53:11;25.25;;;2.90;;
65373;SDS011;52070;53.760;9.678;2022-09-17T01:55:40;17.65;;;2.63;;
65373;SDS011;52070;53.760;9.678;2022-09-17T01:58:11;20.65;;;2.47;;
65373;SDS011;52070;53.760;9.678;2022-09-17T02:00:43;17.08;;;2.47;;
65373;SDS011;52070;53.760;9.678;2022-09-17T02:03:16;10.75;;;2.25;;
65373;SDS011;52070;53.760;9.678;2022-09-17T02:05:48;21.10;;;2.65;;
65373;SDS011;52070;53.760;9.678;2022-09-17T02:08:18;29.30;;;3.13;;
65373;SDS011;52070;53.760;9.678;2022-09-17T02:10:49;25.80;;;2.47;;
65373;SDS011;52070;53.760;9.678;2022-09-17T02:13:22;18.92;;;3.10;;
65373;SDS011;52070;53.760;9.678;2022-09-17T02:16:00;22.42;;;3.17;;
65373;SDS011;52070;53.760;9.678;2022-09-17T02:18:33;20.75;;;2.72;;
65373;SDS011;52070;53.760;9.678;2022-09-17T02:21:04;26.27;;;3.00;;
65373;SDS011;52070;53.760;9.678;2022-09-17T02:23:40;18.52;;;2.50;;
65373;SDS011;52070;53.760;9.678;2022-09-17T02:26:22;22.42;;;2.63;;
65373;SDS011;52070;53.760;9.678;2022-09-17T02:28:52;18.13;;;2.85;;
65373;SDS011;52070;53.760;9.678;2022-09-17T02:31:22;18.38;;;2.17;;
65373;SDS011;52070;53.760;9.678;2022-09-17T02:33:51;25.90;;;3.28;;
65373;SDS011;52070;53.760;9.678;2022-09-17T02:36:22;23.73;;;2.95;;
65373;SDS011;52070;53.760;9.678;2022-09-17T02:38:56;24.33;;;3.72;;
65373;SDS011;52070;53.760;9.678;2022-09-17T02:41:28;24.35;;;2.85;;
65373;SDS011;52070;53.760;9.678;2022-09-17T02:44:06;25.13;;;2.90;;
65373;SDS011;52070;53.760;9.678;2022-09-17T02:46:45;21.73;;;2.38;;
65373;SDS011;52070;53.760;9.678;2022-09-17T02:49:37;18.45;;;2.60;;
65373;SDS011;52070;53.760;9.678;2022-09-17T02:52:16;21.35;;;2.85;;
65373;SDS011;52070;53.760;9.678;2022-09-17T02:54:50;22.92;;;2.80;;
65373;SDS011;52070;53.760;9.678;2022-09-17T02:57:26;18.83;;;2.40;;
65373;SDS011;52070;53.760;9.678;2022-09-17T03:00:01;30.05;;;2.90;;
65373;SDS011;52070;53.760;9.678;2022-09-17T03:02:33;18.30;;;2.75;;
65373;SDS011;52070;53.760;9.678;2022-09-17T03:05:05;28.42;;;3.25;;
65373;SDS011;52070;53.760;9.678;2022-09-17T03:07:34;23.05;;;2.35;;
65373;SDS011;52070;53.760;9.678;2022-09-17T03:10:02;18.30;;;2.78;;
65373;SDS011;52070;53.760;9.678;2022-09-17T03:12:30;24.75;;;2.95;;
65373;SDS011;52070;53.760;9.678;2022-09-17T03:14:57;20.13;;;2.55;;
65373;SDS011;52070;53.760;9.678;2022-09-17T03:17:25;24.27;;;3.58;;
65373;SDS011;52070;53.760;9.678;2022-09-17T03:19:52;17.67;;;2.58;;
65373;SDS011;52070;53.760;9.678;2022-09-17T03:22:20;18.73;;;2.60;;
65373;SDS011;52070;53.760;9.678;2022-09-17T03:24:47;17.38;;;2.40;;
65373;SDS011;52070;53.760;9.678;2022-09-17T03:27:14;21.83;;;3.13;;
65373;SDS011;52070;53.760;9.678;2022-09-17T03:29:41;24.00;;;3.15;;
65373;SDS011;52070;53.760;9.678;2022-09-17T03:32:08;25.33;;;3.00;;
65373;SDS011;52070;53.760;9.678;2022-09-17T03:34:35;24.58;;;3.13;;
65373;SDS011;52070;53.760;9.678;2022-09-17T03:37:02;16.23;;;2.13;;
65373;SDS011;52070;53.760;9.678;2022-09-17T03:39:31;21.65;;;3.03;;
65373;SDS011;52070;53.760;9.678;2022-09-17T03:41:58;25.67;;;3.13;;
65373;SDS011;52070;53.760;9.678;2022-09-17T03:44:25;24.48;;;2.53;;
65373;SDS011;52070;53.760;9.678;2022-09-17T03:46:52;23.75;;;2.88;;
65373;SDS011;52070;53.760;9.678;2022-09-17T03:49:19;24.73;;;3.28;;
65373;SDS011;52070;53.760;9.678;2022-09-17T03:51:46;25.40;;;2.88;;
65373;SDS011;52070;53.760;9.678;2022-09-17T03:54:12;25.63;;;2.67;;
65373;SDS011;52070;53.760;9.678;2022-09-17T03:56:41;18.58;;;2.47;;
65373;SDS011;52070;53.760;9.678;2022-09-17T03:59:08;18.15;;;3.13;;
65373;SDS011;52070;53.760;9.678;2022-09-17T04:01:35;22.42;;;3.17;;
65373;SDS011;52070;53.760;9.678;2022-09-17T04:04:02;21.23;;;3.30;;
65373;SDS011;52070;53.760;9.678;2022-09-17T04:06:29;26.52;;;3.72;;
65373;SDS011;52070;53.760;9.678;2022-09-17T04:08:56;20.45;;;2.47;;
65373;SDS011;52070;53.760;9.678;2022-09-17T04:11:25;21.30;;;2.90;;
65373;SDS011;52070;53.760;9.678;2022-09-17T04:13:53;25.27;;;2.80;;
65373;SDS011;52070;53.760;9.678;2022-09-17T04:16:20;26.58;;;3.60;;
65373;SDS011;52070;53.760;9.678;2022-09-17T04:18:48;27.25;;;3.13;;
65373;SDS011;52070;53.760;9.678;2022-09-17T04:21:15;21.67;;;3.45;;
65373;SDS011;52070;53.760;9.678;2022-09-17T04:23:41;25.20;;;2.67;;
65373;SDS011;52070;53.760;9.678;2022-09-17T04:26:08;23.00;;;2.67;;
65373;SDS011;52070;53.760;9.678;2022-09-17T04:28:35;25.15;;;2.65;;
65373;SDS011;52070;53.760;9.678;2022-09-17T04:31:04;20.50;;;2.50;;
65373;SDS011;52070;53.760;9.678;2022-09-17T04:33:31;18.75;;;2.70;;
65373;SDS011;52070;53.760;9.678;2022-09-17T04:35:58;26.58;;;3.13;;
65373;SDS011;52070;53.760;9.678;2022-09-17T04:38:25;19.98;;;2.35;;
65373;SDS011;52070;53.760;9.678;2022-09-17T04:40:52;23.27;;;3.58;;
65373;SDS011;52070;53.760;9.678;2022-09-17T04:43:21;26.23;;;3.13;;
65373;SDS011;52070;53.760;9.678;2022-09-17T04:45:48;18.27;;;2.83;;
65373;SDS011;52070;53.760;9.678;2022-09-17T04:48:17;20.85;;;2.28;;
65373;SDS011;52070;53.760;9.678;2022-09-17T04:50:44;21.85;;;2.55;;
65373;SDS011;52070;53.760;9.678;2022-09-17T04:53:11;20.83;;;2.50;;
65373;SDS011;52070;53.760;9.678;2022-09-17T04:55:38;22.63;;;3.20;;
65373;SDS011;52070;53.760;9.678;2022-09-17T04:58:05;17.33;;;2.22;;
65373;SDS011;52070;53.760;9.678;2022-09-17T05:00:32;24.83;;;3.25;;
65373;SDS011;52070;53.760;9.678;2022-09-17T05:02:59;21.38;;;2.55;;
65373;SDS011;52070;53.760;9.678;2022-09-17T05:05:28;29.23;;;3.58;;
65373;SDS011;52070;53.760;9.678;2022-09-17T05:07:55;24.10;;;2.47;;
65373;SDS011;52070;53.760;9.678;2022-09-17T05:10:23;26.15;;;3.00;;
65373;SDS011;52070;53.760;9.678;2022-09-17T05:12:51;23.67;;;2.50;;
65373;SDS011;52070;53.760;9.678;2022-09-17T05:15:20;25.88;;;2.53;;
65373;SDS011;52070;53.760;9.678;2022-09-17T05:17:48;22.38;;;2.70;;
65373;SDS011;52070;53.760;9.678;2022-09-17T05:20:15;24.20;;;3.38;;
65373;SDS011;52070;53.760;9.678;2022-09-17T05:22:45;24.63;;;3.10;;
65373;SDS011;52070;53.760;9.678;2022-09-17T05:25:13;21.85;;;3.13;;
65373;SDS011;52070;53.760;9.678;2022-09-17T05:27:41;23.75;;;2.78;;
65373;SDS011;52070;53.760;9.678;2022-09-17T05:30:10;23.67;;;2.92;;
65373;SDS011;52070;53.760;9.678;2022-09-17T05:32:38;24.88;;;3.03;;
65373;SDS011;52070;53.760;9.678;2022-09-17T05:35:05;26.02;;;3.38;;
65373;SDS011;52070;53.760;9.678;2022-09-17T05:37:33;20.55;;;2.63;;
65373;SDS011;52070;53.760;9.678;2022-09-17T05:40:02;28.08;;;2.90;;
65373;SDS011;52070;53.760;9.678;2022-09-17T05:44:58;22.17;;;2.70;;
65373;SDS011;52070;53.760;9.678;2022-09-17T05:47:25;18.52;;;2.25;;
65373;SDS011;52070;53.760;9.678;2022-09-17T05:49:52;20.15;;;2.17;;
65373;SDS011;52070;53.760;9.678;2022-09-17T05:52:19;18.85;;;2.10;;
65373;SDS011;52070;53.760;9.678;2022-09-17T05:54:46;13.27;;;2.28;;
65373;SDS011;52070;53.760;9.678;2022-09-17T05:57:14;25.02;;;2.15;;
65373;SDS011;52070;53.760;9.678;2022-09-17T05:59:42;15.23;;;1.85;;
65373;SDS011;52070;53.760;9.678;2022-09-17T06:02:10;12.32;;;1.65;;
65373;SDS011;52070;53.760;9.678;2022-09-17T06:04:39;16.67;;;1.90;;
65373;SDS011;52070;53.760;9.678;2022-09-17T06:07:06;12.43;;;1.70;;
65373;SDS011;52070;53.760;9.678;2022-09-17T06:09:34;12.85;;;1.73;;
65373;SDS011;52070;53.760;9.678;2022-09-17T06:12:02;7.60;;;1.30;;
65373;SDS011;52070;53.760;9.678;2022-09-17T06:14:30;12.70;;;2.08;;
65373;SDS011;52070;53.760;9.678;2022-09-17T06:16:57;12.30;;;1.48;;
65373;SDS011;52070;53.760;9.678;2022-09-17T06:19:24;12.88;;;1.60;;
65373;SDS011;52070;53.760;9.678;2022-09-17T06:21:51;15.13;;;1.60;;
65373;SDS011;52070;53.760;9.678;2022-09-17T06:24:18;9.18;;;1.40;;
65373;SDS011;52070;53.760;9.678;2022-09-17T06:26:45;18.15;;;1.80;;
65373;SDS011;52070;53.760;9.678;2022-09-17T06:29:12;13.63;;;1.70;;
65373;SDS011;52070;53.760;9.678;2022-09-17T06:31:41;8.18;;;1.50;;
65373;SDS011;52070;53.760;9.678;2022-09-17T06:34:09;6.55;;;1.20;;
65373;SDS011;52070;53.760;9.678;2022-09-17T06:36:36;12.18;;;1.30;;
65373;SDS011;52070;53.760;9.678;2022-09-17T06:39:03;6.35;;;0.90;;
65373;SDS011;52070;53.760;9.678;2022-09-17T06:41:30;9.25;;;0.88;;
65373;SDS011;52070;53.760;9.678;2022-09-17T06:43:57;5.78;;;1.40;;
65373;SDS011;52070;53.760;9.678;2022-09-17T06:46:24;6.00;;;1.20;;
65373;SDS011;52070;53.760;9.678;2022-09-17T06:48:52;6.55;;;1.23;;
65373;SDS011;52070;53.760;9.678;2022-09-17T06:51:19;12.55;;;1.20;;
65373;SDS011;52070;53.760;9.678;2022-09-17T06:53:48;8.27;;;1.40;;
65373;SDS011;52070;53.760;9.678;2022-09-17T06:56:15;9.07;;;1.55;;
65373;SDS011;52070;53.760;9.678;2022-09-17T06:58:42;7.78;;;1.00;;
65373;SDS011;52070;53.760;9.678;2022-09-17T07:01:09;8.07;;;1.17;;
65373;SDS011;52070;53.760;9.678;2022-09-17T07:03:37;6.70;;;0.98;;
65373;SDS011;52070;53.760;9.678;2022-09-17T07:06:08;9.68;;;1.10;;
65373;SDS011;52070;53.760;9.678;2022-09-17T07:08:37;6.75;;;1.13;;
65373;SDS011;52070;53.760;9.678;2022-09-17T07:11:04;6.38;;;0.85;;
65373;SDS011;52070;53.760;9.678;2022-09-17T07:13:32;9.55;;;1.45;;
65373;SDS011;52070;53.760;9.678;2022-09-17T07:16:00;7.70;;;1.23;;
65373;SDS011;52070;53.760;9.678;2022-09-17T07:18:28;21.67;;;1.63;;
65373;SDS011;52070;53.760;9.678;2022-09-17T07:20:56;7.38;;;1.10;;
65373;SDS011;52070;53.760;9.678;2022-09-17T07:23:25;11.48;;;1.45;;
65373;SDS011;52070;53.760;9.678;2022-09-17T07:25:54;4.88;;;1.20;;
65373;SDS011;52070;53.760;9.678;2022-09-17T07:28:22;7.50;;;1.52;;
65373;SDS011;52070;53.760;9.678;2022-09-17T07:30:50;7.35;;;1.00;;
65373;SDS011;52070;53.760;9.678;2022-09-17T07:33:19;5.93;;;1.52;;
65373;SDS011;52070;53.760;9.678;2022-09-17T07:38:19;8.23;;;1.98;;
65373;SDS011;52070;53.760;9.678;2022-09-17T07:40:52;10.40;;;1.98;;
65373;SDS011;52070;53.760;9.678;2022-09-17T07:43:23;11.43;;;1.67;;
65373;SDS011;52070;53.760;9.678;2022-09-17T07:45:51;10.73;;;1.60;;
65373;SDS011;52070;53.760;9.678;2022-09-17T07:48:19;11.07;;;1.27;;
65373;SDS011;52070;53.760;9.678;2022-09-17T07:50:46;9.93;;;1.27;;
65373;SDS011;52070;53.760;9.678;2022-09-17T07:53:13;13.65;;;1.80;;
65373;SDS011;52070;53.760;9.678;2022-09-17T07:55:40;7.65;;;1.23;;
65373;SDS011;52070;53.760;9.678;2022-09-17T07:58:09;10.15;;;1.58;;
65373;SDS011;52070;53.760;9.678;2022-09-17T08:00:36;12.48;;;1.35;;
65373;SDS011;52070;53.760;9.678;2022-09-17T08:03:03;13.95;;;1.40;;
65373;SDS011;52070;53.760;9.678;2022-09-17T08:05:31;7.78;;;1.30;;
65373;SDS011;52070;53.760;9.678;2022-09-17T08:07:58;10.05;;;1.30;;
65373;SDS011;52070;53.760;9.678;2022-09-17T08:10:25;10.30;;;1.20;;
65373;SDS011;52070;53.760;9.678;2022-09-17T08:12:54;8.63;;;1.75;;
65373;SDS011;52070;53.760;9.678;2022-09-17T08:15:24;11.15;;;1.67;;
65373;SDS011;52070;53.760;9.678;2022-09-17T08:17:51;11.18;;;1.48;;
65373;SDS011;52070;53.760;9.678;2022-09-17T08:20:18;8.65;;;1.40;;
65373;SDS011;52070;53.760;9.678;2022-09-17T08:22:46;17.83;;;1.63;;
65373;SDS011;52070;53.760;9.678;2022-09-17T08:25:13;13.23;;;2.00;;
65373;SDS011;52070;53.760;9.678;2022-09-17T08:27:40;17.83;;;2.03;;
65373;SDS011;52070;53.760;9.678;2022-09-17T08:30:07;11.32;;;1.45;;
65373;SDS011;52070;53.760;9.678;2022-09-17T08:32:36;9.48;;;1.45;;
65373;SDS011;52070;53.760;9.678;2022-09-17T08:35:03;7.80;;;1.88;;
65373;SDS011;52070;53.760;9.678;2022-09-17T08:37:31;7.53;;;1.48;;
65373;SDS011;52070;53.760;9.678;2022-09-17T08:39:59;10.45;;;1.38;;
65373;SDS011;52070;53.760;9.678;2022-09-17T08:42:28;16.55;;;1.60;;
65373;SDS011;52070;53.760;9.678;2022-09-17T08:44:58;10.35;;;1.17;;
65373;SDS011;52070;53.760;9.678;2022-09-17T08:47:29;15.52;;;1.48;;
65373;SDS011;52070;53.760;9.678;2022-09-17T08:50:03;6.55;;;1.15;;
65373;SDS011;52070;53.760;9.678;2022-09-17T08:52:45;7.43;;;0.95;;
65373;SDS011;52070;53.760;9.678;2022-09-17T08:55:25;4.40;;;0.82;;
65373;SDS011;52070;53.760;9.678;2022-09-17T08:58:03;4.85;;;1.00;;
65373;SDS011;52070;53.760;9.678;2022-09-17T09:00:53;8.32;;;1.00;;
65373;SDS011;52070;53.760;9.678;2022-09-17T09:03:31;7.38;;;1.13;;
65373;SDS011;52070;53.760;9.678;2022-09-17T09:06:07;4.07;;;0.70;;
65373;SDS011;52070;53.760;9.678;2022-09-17T09:08:36;9.80;;;1.00;;
65373;SDS011;52070;53.760;9.678;2022-09-17T09:11:10;5.63;;;0.90;;
65373;SDS011;52070;53.760;9.678;2022-09-17T09:13:42;5.32;;;0.75;;
65373;SDS011;52070;53.760;9.678;2022-09-17T09:16:13;6.65;;;0.93;;
65373;SDS011;52070;53.760;9.678;2022-09-17T09:18:43;4.07;;;0.93;;
65373;SDS011;52070;53.760;9.678;2022-09-17T09:21:16;5.90;;;0.77;;
65373;SDS011;52070;53.760;9.678;2022-09-17T09:23:51;9.23;;;0.73;;
65373;SDS011;52070;53.760;9.678;2022-09-17T09:26:22;2.55;;;0.57;;
65373;SDS011;52070;53.760;9.678;2022-09-17T09:29:00;3.55;;;0.85;;
65373;SDS011;52070;53.760;9.678;2022-09-17T09:31:38;4.28;;;0.90;;
65373;SDS011;52070;53.760;9.678;2022-09-17T09:34:18;7.43;;;1.10;;
65373;SDS011;52070;53.760;9.678;2022-09-17T09:36:47;8.00;;;1.25;;
65373;SDS011;52070;53.760;9.678;2022-09-17T09:39:17;3.22;;;0.77;;
65373;SDS011;52070;53.760;9.678;2022-09-17T09:41:49;6.32;;;1.15;;
65373;SDS011;52070;53.760;9.678;2022-09-17T09:44:21;3.25;;;0.90;;
65373;SDS011;52070;53.760;9.678;2022-09-17T09:46:53;6.15;;;1.25;;
65373;SDS011;52070;53.760;9.678;2022-09-17T09:49:33;7.07;;;1.25;;
65373;SDS011;52070;53.760;9.678;2022-09-17T09:52:15;5.32;;;1.00;;
65373;SDS011;52070;53.760;9.678;2022-09-17T09:54:53;4.35;;;0.98;;
65373;SDS011;52070;53.760;9.678;2022-09-17T09:57:31;7.65;;;1.17;;
65373;SDS011;52070;53.760;9.678;2022-09-17T10:00:20;11.63;;;1.45;;
65373;SDS011;52070;53.760;9.678;2022-09-17T10:02:51;6.32;;;1.00;;
65373;SDS011;52070;53.760;9.678;2022-09-17T10:05:20;5.45;;;0.93;;
65373;SDS011;52070;53.760;9.678;2022-09-17T10:07:49;9.07;;;1.33;;
65373;SDS011;52070;53.760;9.678;2022-09-17T10:10:16;7.43;;;1.42;;
65373;SDS011;52070;53.760;9.678;2022-09-17T10:12:43;7.95;;;1.42;;
65373;SDS011;52070;53.760;9.678;2022-09-17T10:18:15;8.75;;;1.27;;
65373;SDS011;52070;53.760;9.678;2022-09-17T10:20:53;9.23;;;1.50;;
65373;SDS011;52070;53.760;9.678;2022-09-17T10:23:24;11.52;;;1.58;;
65373;SDS011;52070;53.760;9.678;2022-09-17T10:25:53;8.60;;;1.77;;
65373;SDS011;52070;53.760;9.678;2022-09-17T10:28:31;8.00;;;1.10;;
65373;SDS011;52070;53.760;9.678;2022-09-17T10:31:03;11.38;;;1.60;;
65373;SDS011;52070;53.760;9.678;2022-09-17T10:33:34;14.38;;;1.45;;
65373;SDS011;52070;53.760;9.678;2022-09-17T10:36:06;11.98;;;1.38;;
65373;SDS011;52070;53.760;9.678;2022-09-17T10:38:37;7.13;;;1.00;;
65373;SDS011;52070;53.760;9.678;2022-09-17T10:41:15;7.43;;;1.15;;
65373;SDS011;52070;53.760;9.678;2022-09-17T10:43:44;13.25;;;1.67;;
65373;SDS011;52070;53.760;9.678;2022-09-17T10:46:13;7.43;;;1.30;;
65373;SDS011;52070;53.760;9.678;2022-09-17T10:48:43;12.82;;;1.27;;
65373;SDS011;52070;53.760;9.678;2022-09-17T10:51:18;8.65;;;1.75;;
65373;SDS011;52070;53.760;9.678;2022-09-17T10:56:53;6.20;;;1.15;;
65373;SDS011;52070;53.760;9.678;2022-09-17T11:05:26;5.07;;;1.48;;
65373;SDS011;52070;53.760;9.678;2022-09-17T11:08:05;5.07;;;1.25;;
65373;SDS011;52070;53.760;9.678;2022-09-17T11:10:40;6.20;;;1.15;;
65373;SDS011;52070;53.760;9.678;2022-09-17T11:13:19;6.97;;;1.05;;
65373;SDS011;52070;53.760;9.678;2022-09-17T11:15:56;3.92;;;1.10;;
65373;SDS011;52070;53.760;9.678;2022-09-17T11:18:36;6.30;;;1.50;;
65373;SDS011;52070;53.760;9.678;2022-09-17T11:21:26;6.15;;;1.20;;
65373;SDS011;52070;53.760;9.678;2022-09-17T11:24:07;5.93;;;1.17;;
65373;SDS011;52070;53.760;9.678;2022-09-17T11:26:47;8.93;;;1.60;;
65373;SDS011;52070;53.760;9.678;2022-09-17T11:29:26;5.88;;;1.20;;
65373;SDS011;52070;53.760;9.678;2022-09-17T11:32:04;4.95;;;1.30;;
65373;SDS011;52070;53.760;9.678;2022-09-17T11:34:40;9.45;;;1.33;;
65373;SDS011;52070;53.760;9.678;2022-09-17T11:37:19;10.38;;;1.75;;
65373;SDS011;52070;53.760;9.678;2022-09-17T11:39:51;9.93;;;1.52;;
65373;SDS011;52070;53.760;9.678;2022-09-17T11:42:23;8.13;;;1.55;;
65373;SDS011;52070;53.760;9.678;2022-09-17T11:44:58;10.85;;;1.52;;
65373;SDS011;52070;53.760;9.678;2022-09-17T11:47:30;10.38;;;1.40;;
65373;SDS011;52070;53.760;9.678;2022-09-17T11:50:01;9.52;;;1.92;;
65373;SDS011;52070;53.760;9.678;2022-09-17T11:52:36;8.90;;;1.60;;
65373;SDS011;52070;53.760;9.678;2022-09-17T11:55:15;10.18;;;1.83;;
65373;SDS011;52070;53.760;9.678;2022-09-17T11:57:47;5.72;;;1.33;;
65373;SDS011;52070;53.760;9.678;2022-09-17T12:00:17;11.90;;;1.90;;
65373;SDS011;52070;53.760;9.678;2022-09-17T12:02:49;12.90;;;1.60;;
65373;SDS011;52070;53.760;9.678;2022-09-17T12:05:19;10.25;;;1.65;;
65373;SDS011;52070;53.760;9.678;2022-09-17T12:07:52;9.00;;;1.85;;
65373;SDS011;52070;53.760;9.678;2022-09-17T12:10:28;11.57;;;1.67;;
65373;SDS011;52070;53.760;9.678;2022-09-17T12:13:04;8.30;;;1.63;;
65373;SDS011;52070;53.760;9.678;2022-09-17T12:15:42;8.38;;;1.70;;
65373;SDS011;52070;53.760;9.678;2022-09-17T12:18:17;11.48;;;2.03;;
65373;SDS011;52070;53.760;9.678;2022-09-17T12:20:50;16.35;;;1.80;;
65373;SDS011;52070;53.760;9.678;2022-09-17T12:23:23;10.00;;;2.22;;
65373;SDS011;52070;53.760;9.678;2022-09-17T12:25:59;9.77;;;1.33;;
65373;SDS011;52070;53.760;9.678;2022-09-17T12:28:36;7.43;;;1.20;;
65373;SDS011;52070;53.760;9.678;2022-09-17T12:31:13;6.85;;;1.20;;
65373;SDS011;52070;53.760;9.678;2022-09-17T12:33:49;6.75;;;0.90;;
65373;SDS011;52070;53.760;9.678;2022-09-17T12:36:33;4.93;;;1.13;;
65373;SDS011;52070;53.760;9.678;2022-09-17T12:39:11;2.47;;;0.70;;
65373;SDS011;52070;53.760;9.678;2022-09-17T12:42:11;4.32;;;1.13;;
65373;SDS011;52070;53.760;9.678;2022-09-17T12:45:01;3.95;;;1.02;;
65373;SDS011;52070;53.760;9.678;2022-09-17T12:48:00;2.53;;;1.10;;
65373;SDS011;52070;53.760;9.678;2022-09-17T12:50:49;4.25;;;0.93;;
65373;SDS011;52070;53.760;9.678;2022-09-17T12:53:27;5.13;;;0.95;;
65373;SDS011;52070;53.760;9.678;2022-09-17T12:56:01;6.18;;;0.82;;
65373;SDS011;52070;53.760;9.678;2022-09-17T12:58:35;4.00;;;0.70;;
65373;SDS011;52070;53.760;9.678;2022-09-17T13:01:16;6.65;;;0.75;;
65373;SDS011;52070;53.760;9.678;2022-09-17T13:03:47;0.75;;;0.50;;
65373;SDS011;52070;53.760;9.678;2022-09-17T13:06:25;1.20;;;0.30;;
65373;SDS011;52070;53.760;9.678;2022-09-17T13:09:31;4.32;;;0.47;;
65373;SDS011;52070;53.760;9.678;2022-09-17T13:12:13;5.45;;;0.50;;
65373;SDS011;52070;53.760;9.678;2022-09-17T13:14:50;1.80;;;0.40;;
65373;SDS011;52070;53.760;9.678;2022-09-17T13:17:30;0.63;;;0.40;;
65373;SDS011;52070;53.760;9.678;2022-09-17T13:20:02;2.60;;;0.38;;
65373;SDS011;52070;53.760;9.678;2022-09-17T13:22:42;2.22;;;0.35;;
65373;SDS011;52070;53.760;9.678;2022-09-17T13:25:10;2.30;;;0.38;;
65373;SDS011;52070;53.760;9.678;2022-09-17T13:27:39;3.92;;;0.47;;
65373;SDS011;52070;53.760;9.678;2022-09-17T13:30:07;0.88;;;0.30;;
65373;SDS011;52070;53.760;9.678;2022-09-17T13:32:43;0.30;;;0.30;;
65373;SDS011;52070;53.760;9.678;2022-09-17T13:38:12;1.17;;;0.30;;
65373;SDS011;52070;53.760;9.678;2022-09-17T13:40:39;3.03;;;0.45;;
65373;SDS011;52070;53.760;9.678;2022-09-17T13:43:07;2.92;;;0.47;;
65373;SDS011;52070;53.760;9.678;2022-09-17T13:48:42;1.60;;;0.60;;
65373;SDS011;52070;53.760;9.678;2022-09-17T13:54:10;5.28;;;0.90;;
65373;SDS011;52070;53.760;9.678;2022-09-17T13:56:40;3.17;;;0.65;;
65373;SDS011;52070;53.760;9.678;2022-09-17T13:59:11;3.35;;;0.70;;
65373;SDS011;52070;53.760;9.678;2022-09-17T14:04:33;1.67;;;0.40;;
65373;SDS011;52070;53.760;9.678;2022-09-17T14:07:29;5.00;;;0.73;;
65373;SDS011;52070;53.760;9.678;2022-09-17T14:09:58;2.92;;;0.60;;
65373;SDS011;52070;53.760;9.678;2022-09-17T14:21:26;5.30;;;0.90;;
65373;SDS011;52070;53.760;9.678;2022-09-17T14:23:56;3.90;;;0.90;;
65373;SDS011;52070;53.760;9.678;2022-09-17T14:26:27;7.75;;;1.40;;
65373;SDS011;52070;53.760;9.678;2022-09-17T14:29:18;6.20;;;1.25;;
65373;SDS011;52070;53.760;9.678;2022-09-17T14:31:54;9.13;;;2.03;;
65373;SDS011;52070;53.760;9.678;2022-09-17T14:34:22;11.70;;;1.83;;
65373;SDS011;52070;53.760;9.678;2022-09-17T14:36:52;6.95;;;1.48;;
65373;SDS011;52070;53.760;9.678;2022-09-17T14:39:23;10.30;;;1.83;;
65373;SDS011;52070;53.760;9.678;2022-09-17T14:41:55;10.05;;;1.50;;
65373;SDS011;52070;53.760;9.678;2022-09-17T14:44:23;9.18;;;2.25;;
65373;SDS011;52070;53.760;9.678;2022-09-17T14:46:53;7.25;;;1.52;;
65373;SDS011;52070;53.760;9.678;2022-09-17T14:49:23;8.93;;;1.25;;
65373;SDS011;52070;53.760;9.678;2022-09-17T14:51:52;8.40;;;1.40;;
65373;SDS011;52070;53.760;9.678;2022-09-17T14:54:21;8.25;;;1.15;;
65373;SDS011;52070;53.760;9.678;2022-09-17T14:56:54;7.65;;;1.50;;
65373;SDS011;52070;53.760;9.678;2022-09-17T14:59:28;7.43;;;1.05;;
65373;SDS011;52070;53.760;9.678;2022-09-17T15:02:17;4.40;;;0.88;;
65373;SDS011;52070;53.760;9.678;2022-09-17T15:04:48;5.25;;;0.77;;
65373;SDS011;52070;53.760;9.678;2022-09-17T15:07:16;3.28;;;0.70;;
65373;SDS011;52070;53.760;9.678;2022-09-17T15:09:46;4.55;;;0.90;;
65373;SDS011;52070;53.760;9.678;2022-09-17T15:12:14;4.28;;;0.80;;
65373;SDS011;52070;53.760;9.678;2022-09-17T15:14:44;4.85;;;0.85;;
65373;SDS011;52070;53.760;9.678;2022-09-17T15:17:12;4.32;;;1.08;;
65373;SDS011;52070;53.760;9.678;2022-09-17T15:19:44;5.90;;;0.93;;
65373;SDS011;52070;53.760;9.678;2022-09-17T15:22:15;3.40;;;0.80;;
65373;SDS011;52070;53.760;9.678;2022-09-17T15:24:47;4.32;;;0.90;;
65373;SDS011;52070;53.760;9.678;2022-09-17T15:27:20;7.75;;;0.90;;
65373;SDS011;52070;53.760;9.678;2022-09-17T15:29:52;8.35;;;1.40;;
65373;SDS011;52070;53.760;9.678;2022-09-17T15:32:23;6.05;;;1.40;;
65373;SDS011;52070;53.760;9.678;2022-09-17T15:35:12;3.97;;;1.48;;
65373;SDS011;52070;53.760;9.678;2022-09-17T15:37:45;8.85;;;1.60;;
65373;SDS011;52070;53.760;9.678;2022-09-17T15:40:13;3.58;;;1.30;;
65373;SDS011;52070;53.760;9.678;2022-09-17T15:42:49;9.23;;;1.70;;
65373;SDS011;52070;53.760;9.678;2022-09-17T15:45:18;7.03;;;2.13;;
65373;SDS011;52070;53.760;9.678;2022-09-17T15:47:50;7.50;;;1.85;;